Estación Meteorológica Peña el Pijo (Robertgarden) [ 02/03/23 04:12:58 CET ]

Fecha Hora Presion(HPa) Temp (°C) Humedad % Rocio (°C) Viento ( m/s) Direccion Lluvia 1Hora(mm) Lluvia 24H(mm) LLuvia Total(mm)
2012-May-06 01:01:12 1003.900 8.1 86 5.9         158.50
2012-May-06 02:01:11 1003.300 7.6 86 5.4         158.50
2012-May-06 03:01:58 1004.000 7.6 89 5.9         158.50
2012-May-06 04:02:00 1003.800 7.8 89 6.1         158.50
2012-May-06 05:02:11 1003.500 7.2 90 5.7         158.50
2012-May-06 06:01:52 1004.400 6.9 90 5.4         158.50
2012-May-06 07:01:13 1004.300 5.3 90 3.8         158.50
2012-May-06 08:01:14 1005.400 5.8 91 4.5         158.50
2012-May-06 09:01:12 1006.200 9.9 80 6.6         158.50
2012-May-06 10:01:18 1006.300 12.0 65 5.6         158.50
2012-May-06 11:01:14 1007.200 13.3 58 5.2 1.2 ESE     158.50
2012-May-06 12:01:13 1007.800 15.4 52 5.6 0.9 S     158.50
2012-May-06 13:01:12 1008.100 15.2 50 4.9         158.50
2012-May-06 14:01:13 1008.300 16.5 44 4.1 1.8 ESE     158.50
2012-May-06 15:01:11 1008.500 18.3 39 4.1         158.50
2012-May-06 16:01:16 1008.200 19.8 35 3.8 2.8 NE     158.50
2012-May-06 17:01:13 1008.100 20.3 33 3.4 1.2 SW     158.50
2012-May-06 18:01:16 1008.200 21.1 32 3.7         158.50
2012-May-06 19:01:13 1008.700 19.0 34 2.7 0.3 W     158.50
2012-May-06 20:01:13 1008.900 15.0 40 1.5         158.50
2012-May-06 21:01:17 1009.800 12.9 47 1.8         158.50
2012-May-06 22:01:14 1010.500 10.6 55 1.9         158.50
2012-May-06 23:01:14 1011.300 9.1 63 2.4         158.50

Temperatura Máxima:21°    Temperatura Mínima:
Presión Máxima:1011.300 Hpa    Presión Mínima:1003.300 Hpa


Volver